Terminal Aerodrome Forecast
Issued by NWS Northern Indiana

Home | Current Version | Previous Version | Text Only | Print | Product List | Glossary On
Versions: 1 2 3 4 5 6 7 8 9 10 11 12 13 14 15 16
000
FTUS43 KIWX 291700
TAFFWA
TAF
KFWA 291735Z 2918/3018 32013G22KT 4SM -SNRA BR BKN012 OVC020
     FM292000 32015G25KT 5SM -SHSN OVC012
     FM292300 33014G24KT P6SM OVC015
     FM300800 34013G22KT P6SM OVC020
     FM301500 35012KT P6SM SCT250=

USA.gov is the U.S. government's official web portal to all federal, state and local government web resources and services.